aviador You're here:

KDSF Decoded Metar

in
Report Time2018-04-24 14:00:00
UTC Time2018-04-24 14:17:11
Flight Rules vfr VFR
WindCalm
Visibility9999 m
Phenomena:N/A
Clouds:Few 048 Hf
Expected CloudBase > 2,400 ft AGL from Temp-Dew spread
CeilingNone
Temp21°C
Dew Point15°C (69% RH)
QNH1017 hPa
Raw Report
METAR KDSF 241400Z AUTO 00000KT 10SM FEW048 21/15 A3003 RMK A01=

Extra information for KDSF:More info

Social comments